createdAt,value
2022-08-07T00:02:37.593Z,2.70
2022-08-07T00:05:09.634Z,2.57
2022-08-07T00:07:41.781Z,2.93
2022-08-07T00:10:27.206Z,2.57
2022-08-07T00:13:23.469Z,1.97
2022-08-07T00:15:56.013Z,2.43
2022-08-07T00:18:29.300Z,2.30
2022-08-07T00:21:08.205Z,2.47
2022-08-07T00:23:55.579Z,2.13
2022-08-07T00:26:49.444Z,2.13
2022-08-07T00:29:25.923Z,2.60
2022-08-07T00:32:03.463Z,2.90
2022-08-07T00:34:37.642Z,2.30
2022-08-07T00:37:09.406Z,2.50
2022-08-07T00:39:45.154Z,2.20
2022-08-07T00:42:29.190Z,2.70
2022-08-07T00:45:01.106Z,2.63
2022-08-07T00:48:07.979Z,2.10
2022-08-07T00:50:43.508Z,2.50
2022-08-07T00:53:18.313Z,2.53
2022-08-07T00:56:02.072Z,4.63
2022-08-07T00:58:35.223Z,2.30
2022-08-07T01:01:07.420Z,3.00
2022-08-07T01:03:55.981Z,2.43
2022-08-07T01:06:31.741Z,2.13
2022-08-07T01:09:04.478Z,2.90
2022-08-07T01:12:09.143Z,2.70
2022-08-07T01:14:30.118Z,3.07
2022-08-07T01:17:04.181Z,2.67
2022-08-07T01:19:39.939Z,2.60
2022-08-07T01:22:22.918Z,2.50
2022-08-07T01:25:05.126Z,2.40
2022-08-07T01:27:55.494Z,2.90
2022-08-07T01:30:29.798Z,2.30
2022-08-07T01:33:02.288Z,3.00
2022-08-07T01:35:52.893Z,2.60
2022-08-07T01:38:26.217Z,2.60
2022-08-07T01:41:03.329Z,3.30
2022-08-07T01:43:38.144Z,2.63
2022-08-07T01:46:12.236Z,2.90
2022-08-07T01:48:46.681Z,3.17
2022-08-07T01:51:39.255Z,2.83
2022-08-07T01:54:21.943Z,3.13
2022-08-07T01:57:24.559Z,3.03
2022-08-07T02:00:03.148Z,2.40
2022-08-07T02:03:18.786Z,3.20
2022-08-07T02:06:30.755Z,3.60
2022-08-07T02:08:57.031Z,3.40
2022-08-07T02:12:04.739Z,2.63
2022-08-07T02:14:40.295Z,3.10
2022-08-07T02:17:24.732Z,3.03
2022-08-07T02:20:09.486Z,2.83
2022-08-07T02:22:54.800Z,3.73
2022-08-07T02:26:10.751Z,3.10
2022-08-07T02:28:24.415Z,2.73
2022-08-07T02:30:58.888Z,3.40
2022-08-07T02:33:42.296Z,2.90
2022-08-07T02:36:28.870Z,3.00
2022-08-07T02:39:15.934Z,2.83
2022-08-07T02:41:54.412Z,2.70
2022-08-07T02:44:34.351Z,3.27
2022-08-07T02:47:08.057Z,3.20
2022-08-07T02:49:57.993Z,2.90
2022-08-07T02:52:41.355Z,3.07
2022-08-07T02:55:28.332Z,3.20
2022-08-07T02:58:21.798Z,3.20
2022-08-07T03:00:57.449Z,2.97
2022-08-07T03:03:49.323Z,2.80
2022-08-07T03:06:25.800Z,3.10
2022-08-07T03:09:07.628Z,3.23
2022-08-07T03:11:52.521Z,3.10
2022-08-07T03:14:39.708Z,2.73
2022-08-07T03:17:11.695Z,2.87
2022-08-07T03:19:43.677Z,3.07
2022-08-07T03:22:29.394Z,3.10
2022-08-07T03:25:02.700Z,2.47
2022-08-07T03:27:59.383Z,3.40
2022-08-07T03:30:27.658Z,3.23
2022-08-07T03:33:01.367Z,3.30
2022-08-07T03:35:43.552Z,3.60
2022-08-07T03:38:29.380Z,3.07
2022-08-07T03:41:02.315Z,3.10
2022-08-07T03:43:36.304Z,3.30
2022-08-07T03:46:10.449Z,3.10
2022-08-07T03:49:02.608Z,3.43
2022-08-07T03:51:47.451Z,3.67
2022-08-07T03:54:36.064Z,3.03
2022-08-07T03:58:33.181Z,3.20
2022-08-07T04:00:14.050Z,2.90
2022-08-07T04:02:47.320Z,3.30
2022-08-07T04:05:28.734Z,3.37
2022-08-07T04:08:16.251Z,4.00
2022-08-07T04:10:53.868Z,3.47
2022-08-07T04:14:11.009Z,3.23
2022-08-07T04:16:37.196Z,4.20
2022-08-07T04:19:15.032Z,3.80
2022-08-07T04:21:59.554Z,3.23
2022-08-07T04:24:39.028Z,3.40
2022-08-07T04:27:20.348Z,4.27
2022-08-07T04:30:01.181Z,3.70
2022-08-07T04:32:35.326Z,4.20
2022-08-07T04:35:11.337Z,3.80
2022-08-07T04:38:02.951Z,3.90
2022-08-07T04:40:44.052Z,4.10
2022-08-07T04:44:09.644Z,3.33
2022-08-07T04:46:42.800Z,4.03
2022-08-07T04:49:42.278Z,3.93
2022-08-07T04:52:51.901Z,4.17
2022-08-07T04:58:07.950Z,3.90
2022-08-07T04:59:09.242Z,4.20
2022-08-07T05:01:43.011Z,4.10
2022-08-07T05:04:22.355Z,3.87
2022-08-07T05:07:20.460Z,3.73
2022-08-07T05:10:04.800Z,4.10
2022-08-07T05:12:46.238Z,3.93
2022-08-07T05:15:32.150Z,4.30
2022-08-07T05:18:10.438Z,4.33
2022-08-07T05:20:46.593Z,5.03
2022-08-07T05:23:29.011Z,4.70
2022-08-07T05:26:15.249Z,4.70
2022-08-07T05:28:53.634Z,4.70
2022-08-07T05:31:34.619Z,4.30
2022-08-07T05:34:11.986Z,5.10
2022-08-07T05:36:49.085Z,5.33
2022-08-07T05:40:14.224Z,4.83
2022-08-07T05:42:33.311Z,5.30
2022-08-07T05:45:26.343Z,4.80
2022-08-07T05:48:02.591Z,5.63
2022-08-07T05:50:35.471Z,5.97
2022-08-07T05:54:08.629Z,5.03
2022-08-07T05:56:05.673Z,4.85
2022-08-07T05:58:39.067Z,6.20
2022-08-07T06:01:13.325Z,5.97
2022-08-07T06:03:56.467Z,5.87
2022-08-07T06:06:32.761Z,6.10
2022-08-07T06:09:05.532Z,6.50
2022-08-07T06:11:38.500Z,6.37
2022-08-07T06:14:21.306Z,6.37
2022-08-07T06:51:49.958Z,8.00
2022-08-07T06:55:29.404Z,6.40
2022-08-07T06:57:20.768Z,7.07
2022-08-07T07:00:18.006Z,7.53
2022-08-07T07:02:57.755Z,6.93
2022-08-07T07:06:03.226Z,6.37
2022-08-07T07:08:31.079Z,6.10
2022-08-07T07:11:13.822Z,6.60
2022-08-07T07:14:01.439Z,6.70
2022-08-07T07:16:45.400Z,6.40
2022-08-07T07:19:55.755Z,6.87
2022-08-07T07:22:35.682Z,6.57
2022-08-07T07:26:33.096Z,5.60
2022-08-07T07:28:29.747Z,6.77
2022-08-07T07:31:10.672Z,6.10
2022-08-07T07:33:44.784Z,4.87
2022-08-07T07:36:32.193Z,4.60
2022-08-07T07:39:05.793Z,4.90
2022-08-07T07:42:02.150Z,4.40
2022-08-07T07:44:36.054Z,4.70
2022-08-07T07:47:14.233Z,4.97
2022-08-07T07:50:35.972Z,4.83
2022-08-07T07:52:49.003Z,4.27
2022-08-07T07:55:21.758Z,4.70
2022-08-07T07:57:58.380Z,4.50
2022-08-07T08:00:34.436Z,3.87
2022-08-07T08:03:16.686Z,3.70
2022-08-07T08:05:54.208Z,3.70
2022-08-07T08:08:35.339Z,3.60
2022-08-07T08:11:16.143Z,3.23
2022-08-07T08:13:54.806Z,3.80
2022-08-07T08:16:38.673Z,3.53
2022-08-07T08:19:29.504Z,3.43
2022-08-07T08:22:28.369Z,3.33
2022-08-07T08:25:42.192Z,3.20
2022-08-07T08:28:24.169Z,3.10
2022-08-07T08:31:16.085Z,3.47
2022-08-07T08:33:55.726Z,2.70
2022-08-07T08:36:32.654Z,3.23
2022-08-07T08:39:08.770Z,3.33
2022-08-07T08:41:57.312Z,2.53
2022-08-07T08:44:45.644Z,3.70
2022-08-07T08:47:34.474Z,2.40
2022-08-07T08:50:47.602Z,2.50
2022-08-07T08:53:47.287Z,2.07
2022-08-07T08:56:32.122Z,2.50
2022-08-07T08:59:29.217Z,2.60
2022-08-07T09:02:08.947Z,2.40
2022-08-07T09:04:40.968Z,2.83
2022-08-07T09:07:46.221Z,2.57
2022-08-07T09:10:37.823Z,2.30
2022-08-07T09:13:53.907Z,2.28
2022-08-07T09:16:39.441Z,2.65
2022-08-07T09:19:52.041Z,3.05
2022-08-07T09:24:53.771Z,2.58
2022-08-07T09:25:39.267Z,2.28
2022-08-07T09:30:01.765Z,2.10
2022-08-07T09:31:06.799Z,2.30
2022-08-07T09:34:10.985Z,2.58
2022-08-07T09:37:07.258Z,2.90
2022-08-07T09:39:55.093Z,2.22
2022-08-07T09:42:54.332Z,2.42
2022-08-07T09:47:37.326Z,1.95
2022-08-07T09:50:02.932Z,2.40
2022-08-07T09:52:09.991Z,2.28
2022-08-07T09:54:46.695Z,2.20
2022-08-07T09:57:56.056Z,2.00
2022-08-07T10:00:52.046Z,1.70
2022-08-07T10:04:03.910Z,1.75
2022-08-07T10:07:02.651Z,2.15
2022-08-07T10:10:00.890Z,1.85
2022-08-07T10:12:34.879Z,1.73
2022-08-07T10:15:30.183Z,1.60
2022-08-07T10:18:47.532Z,1.60
2022-08-07T10:22:01.184Z,1.60
2022-08-07T10:25:12.259Z,1.88
2022-08-07T10:27:53.901Z,1.60
2022-08-07T10:30:51.998Z,1.70
2022-08-07T10:34:06.504Z,1.90
2022-08-07T10:36:59.080Z,1.63
2022-08-07T10:40:09.164Z,1.25
2022-08-07T10:43:10.039Z,2.03
2022-08-07T10:45:58.346Z,1.55
2022-08-07T10:48:53.983Z,1.35
2022-08-07T10:52:13.450Z,1.52
2022-08-07T10:55:26.632Z,1.55
2022-08-07T10:58:08.491Z,1.70
2022-08-07T11:01:11.548Z,1.50
2022-08-07T11:04:34.921Z,1.20
2022-08-07T11:08:00.804Z,1.20
2022-08-07T11:10:31.796Z,1.63
2022-08-07T11:13:16.775Z,1.30
2022-08-07T11:16:19.694Z,1.65
2022-08-07T11:19:21.798Z,1.70
2022-08-07T11:22:49.971Z,1.45
2022-08-07T11:25:50.466Z,1.63
2022-08-07T11:28:41.255Z,1.55
2022-08-07T11:31:38.451Z,1.60
2022-08-07T11:34:47.751Z,1.50
2022-08-07T11:37:57.443Z,1.40
2022-08-07T11:40:32.291Z,1.70
2022-08-07T11:43:15.457Z,1.88
2022-08-07T11:45:53.612Z,1.53
2022-08-07T11:48:29.487Z,1.57
2022-08-07T11:51:41.399Z,1.80
2022-08-07T11:54:30.020Z,1.90
2022-08-07T11:57:59.989Z,1.87
2022-08-07T12:00:34.411Z,1.63
2022-08-07T12:03:46.407Z,1.80
2022-08-07T12:06:37.057Z,1.50
2022-08-07T12:09:23.723Z,1.90
2022-08-07T12:12:09.298Z,1.80
2022-08-07T12:15:00.239Z,1.77
2022-08-07T12:17:59.333Z,2.00
2022-08-07T12:21:02.340Z,2.00
2022-08-07T12:24:06.677Z,1.90
2022-08-07T12:26:49.377Z,2.00
2022-08-07T12:29:37.812Z,1.80
2022-08-07T12:32:59.285Z,1.90
2022-08-07T12:35:36.353Z,1.60
2022-08-07T12:38:16.873Z,1.57
2022-08-07T12:41:03.409Z,1.57
2022-08-07T12:44:03.824Z,1.77
2022-08-07T12:46:43.175Z,1.43
2022-08-07T12:49:51.638Z,2.10
2022-08-07T12:52:41.264Z,1.77
2022-08-07T12:55:40.573Z,1.70
2022-08-07T12:58:16.983Z,1.60
2022-08-07T13:01:06.363Z,1.90
2022-08-07T13:04:05.114Z,2.13
2022-08-07T13:08:12.772Z,2.13
2022-08-07T13:10:38.277Z,2.10
2022-08-07T13:13:47.073Z,1.80
2022-08-07T13:16:50.952Z,1.80
2022-08-07T13:19:46.055Z,2.30
2022-08-07T13:22:31.616Z,2.30
2022-08-07T13:25:28.854Z,2.00
2022-08-07T13:28:14.300Z,1.70
2022-08-07T13:31:06.645Z,1.77
2022-08-07T13:34:14.670Z,3.00
2022-08-07T13:37:33.607Z,2.07
2022-08-07T13:40:35.737Z,1.73
2022-08-07T13:43:16.169Z,2.00
2022-08-07T13:46:10.765Z,2.10
2022-08-07T13:48:59.427Z,2.43
2022-08-07T13:52:22.166Z,2.00
2022-08-07T13:54:33.626Z,1.83
2022-08-07T13:57:14.675Z,2.43
2022-08-07T13:59:59.874Z,2.20
2022-08-07T14:02:45.749Z,1.90
2022-08-07T14:05:29.012Z,8.73
2022-08-07T14:08:10.514Z,2.03
2022-08-07T14:10:43.813Z,1.80
2022-08-07T14:13:20.635Z,2.50
2022-08-07T14:16:07.520Z,2.00
2022-08-07T14:18:57.062Z,1.93
2022-08-07T14:22:03.426Z,2.53
2022-08-07T14:24:41.390Z,2.05
2022-08-07T14:28:10.382Z,1.90
2022-08-07T14:30:11.936Z,2.23
2022-08-07T14:32:47.166Z,2.30
2022-08-07T14:38:30.919Z,1.93
2022-08-07T14:41:14.688Z,2.27
2022-08-07T14:46:51.846Z,2.00
2022-08-07T14:49:58.462Z,2.37
2022-08-07T14:52:27.764Z,2.27
2022-08-07T14:55:08.974Z,2.00
2022-08-07T14:57:55.088Z,2.87
2022-08-07T15:00:34.538Z,2.23
2022-08-07T15:03:19.324Z,2.27
2022-08-07T15:08:54.641Z,2.20
2022-08-07T15:11:53.380Z,2.37
2022-08-07T15:14:25.383Z,2.40
2022-08-07T15:17:16.720Z,1.90
2022-08-07T15:22:53.612Z,2.17
2022-08-07T15:25:36.981Z,2.07
2022-08-07T15:28:35.103Z,2.00
2022-08-07T15:31:06.581Z,1.93
2022-08-07T15:33:42.827Z,2.20
2022-08-07T15:36:26.273Z,2.10
2022-08-07T15:39:12.937Z,2.30
2022-08-07T15:42:45.951Z,2.10
2022-08-07T15:44:52.287Z,2.50
2022-08-07T15:48:01.036Z,2.20
2022-08-07T15:51:01.659Z,2.60
2022-08-07T15:53:21.757Z,2.33
2022-08-07T15:56:02.886Z,2.20
2022-08-07T15:58:49.871Z,2.03
2022-08-07T16:01:38.656Z,1.87
2022-08-07T16:04:15.612Z,2.07
2022-08-07T16:06:56.815Z,1.87
2022-08-07T16:09:41.997Z,2.33
2022-08-07T16:12:28.876Z,1.90
2022-08-07T16:15:57.770Z,2.00
2022-08-07T16:18:49.902Z,2.10
2022-08-07T16:22:02.680Z,2.10
2022-08-07T16:24:52.622Z,2.27
2022-08-07T16:27:40.223Z,2.10
2022-08-07T16:30:31.763Z,2.20
2022-08-07T16:34:02.994Z,2.60
2022-08-07T16:37:02.035Z,2.70
2022-08-07T16:39:55.359Z,2.30
2022-08-07T16:42:42.468Z,2.50
2022-08-07T16:46:20.949Z,2.10
2022-08-07T16:48:53.703Z,2.67
2022-08-07T16:52:11.296Z,2.27
2022-08-07T16:54:55.112Z,2.23
2022-08-07T16:58:02.644Z,2.43
2022-08-07T17:00:50.562Z,2.63
2022-08-07T17:04:00.046Z,2.50
2022-08-07T17:06:44.602Z,2.30
2022-08-07T17:10:07.090Z,2.50
2022-08-07T17:13:01.065Z,2.80
2022-08-07T17:16:12.985Z,2.40
2022-08-07T17:19:04.647Z,3.03
2022-08-07T17:21:51.126Z,2.13
2022-08-07T17:24:26.891Z,2.67
2022-08-07T17:27:02.485Z,2.10
2022-08-07T17:30:15.774Z,2.20
2022-08-07T17:33:00.581Z,2.70
2022-08-07T17:35:55.812Z,2.17
2022-08-07T17:38:35.341Z,2.50
2022-08-07T17:41:12.347Z,2.60
2022-08-07T17:44:15.656Z,2.20
2022-08-07T17:47:38.062Z,2.20
2022-08-07T17:50:42.506Z,2.40
2022-08-07T17:54:01.633Z,2.23
2022-08-07T17:56:49.411Z,2.40
2022-08-07T17:59:36.001Z,3.00
2022-08-07T18:02:14.751Z,17.87
2022-08-07T18:05:21.566Z,11.60
2022-08-07T18:08:24.183Z,35.73
2022-08-07T18:11:53.934Z,11.77
2022-08-07T18:14:19.219Z,9.30
2022-08-07T18:17:05.791Z,4.77
2022-08-07T18:21:09.845Z,6.80
2022-08-07T18:22:54.109Z,6.17
2022-08-07T18:25:40.879Z,4.57
2022-08-07T18:28:34.360Z,5.30
2022-08-07T18:31:55.731Z,5.30
2022-08-07T18:35:02.043Z,4.40
2022-08-07T18:38:59.083Z,3.10
2022-08-07T18:41:10.288Z,3.70
2022-08-07T18:44:03.535Z,10.90
2022-08-07T18:47:01.542Z,5.73
2022-08-07T18:50:32.866Z,3.10
2022-08-07T18:52:55.091Z,4.70
2022-08-07T18:55:57.876Z,1.90
2022-08-07T18:58:51.997Z,2.10
2022-08-07T19:02:19.934Z,2.23
2022-08-07T19:04:38.539Z,2.60
2022-08-07T19:07:36.278Z,2.70
2022-08-07T19:10:31.803Z,2.50
2022-08-07T19:13:35.593Z,3.53
2022-08-07T19:16:42.939Z,2.60
2022-08-07T19:19:43.877Z,2.50
2022-08-07T19:22:30.588Z,2.27
2022-08-07T19:25:05.745Z,2.27
2022-08-07T19:28:30.796Z,2.30
2022-08-07T19:31:03.821Z,2.30
2022-08-07T19:33:35.045Z,2.17
2022-08-07T19:36:14.327Z,2.27
2022-08-07T19:39:01.531Z,2.23
2022-08-07T19:42:05.497Z,2.20
2022-08-07T19:44:42.758Z,3.03
2022-08-07T19:47:27.414Z,3.20
2022-08-07T19:50:02.882Z,2.67
2022-08-07T19:52:35.755Z,2.13
2022-08-07T19:55:19.455Z,2.33
2022-08-07T19:58:12.371Z,2.00
2022-08-07T20:00:53.930Z,2.20
2022-08-07T20:03:33.444Z,2.40
2022-08-07T20:06:15.429Z,2.20
2022-08-07T20:09:01.797Z,2.10
2022-08-07T20:12:22.928Z,1.97
2022-08-07T20:14:54.148Z,2.10
2022-08-07T20:17:33.585Z,2.07
2022-08-07T20:20:11.087Z,2.43
2022-08-07T20:22:47.031Z,2.40
2022-08-07T20:25:22.487Z,2.10
2022-08-07T20:27:58.700Z,2.63
2022-08-07T20:30:40.460Z,2.30
2022-08-07T20:33:36.407Z,2.10
2022-08-07T20:36:11.863Z,1.80
2022-08-07T20:39:00.414Z,2.03
2022-08-07T20:41:38.085Z,2.50
2022-08-07T20:44:13.367Z,2.23
2022-08-07T20:46:46.674Z,2.07
2022-08-07T20:49:59.987Z,1.97
2022-08-07T20:52:21.233Z,2.23
2022-08-07T20:55:03.827Z,2.37
2022-08-07T20:57:47.630Z,2.30
2022-08-07T21:00:42.622Z,2.20
2022-08-07T21:03:25.546Z,2.60
2022-08-07T21:06:21.708Z,2.50
2022-08-07T21:09:02.820Z,1.80
2022-08-07T21:11:50.739Z,2.17
2022-08-07T21:14:33.293Z,2.40
2022-08-07T21:18:06.117Z,2.37
2022-08-07T21:20:06.232Z,2.77
2022-08-07T21:22:54.427Z,2.00
2022-08-07T21:25:39.002Z,2.60
2022-08-07T21:28:48.053Z,2.63
2022-08-07T21:32:41.867Z,2.30
2022-08-07T21:35:00.482Z,2.50
2022-08-07T21:37:58.367Z,2.53
2022-08-07T21:40:41.731Z,2.40
2022-08-07T21:43:23.053Z,2.57
2022-08-07T21:46:31.282Z,2.57
2022-08-07T21:49:14.448Z,2.60
2022-08-07T21:52:16.682Z,2.30
2022-08-07T21:55:27.791Z,2.53
2022-08-07T21:58:30.190Z,2.40
2022-08-07T22:01:22.167Z,4.53
2022-08-07T22:04:20.270Z,2.53
2022-08-07T22:07:02.051Z,2.43
2022-08-07T22:09:54.014Z,2.50
2022-08-07T22:12:44.118Z,2.60
2022-08-07T22:16:38.694Z,2.10
2022-08-07T22:18:38.377Z,2.50
2022-08-07T22:22:02.836Z,2.50
2022-08-07T22:24:37.347Z,2.10
2022-08-07T22:27:34.059Z,2.70
2022-08-07T22:30:21.553Z,4.27
2022-08-07T22:33:03.711Z,2.10
2022-08-07T22:35:56.217Z,2.73
2022-08-07T22:38:41.567Z,2.43
2022-08-07T22:42:03.574Z,2.20
2022-08-07T22:44:35.884Z,1.97
2022-08-07T22:47:29.943Z,2.13
2022-08-07T22:50:34.722Z,2.23
2022-08-07T22:53:15.390Z,2.07
2022-08-07T22:56:09.267Z,2.43
2022-08-07T22:59:09.692Z,2.30
2022-08-07T23:02:19.606Z,2.03
2022-08-07T23:06:08.856Z,2.60
2022-08-07T23:08:24.492Z,2.30
2022-08-07T23:11:13.314Z,2.60
2022-08-07T23:13:49.092Z,2.27
2022-08-07T23:16:48.566Z,2.43
2022-08-07T23:20:09.726Z,2.50
2022-08-07T23:23:14.757Z,1.90
2022-08-07T23:26:18.270Z,2.60
2022-08-07T23:29:43.253Z,2.23
2022-08-07T23:34:22.629Z,3.33
2022-08-07T23:35:54.304Z,2.43
2022-08-07T23:39:05.543Z,2.13
2022-08-07T23:41:47.608Z,2.80
2022-08-07T23:45:06.116Z,2.70
2022-08-07T23:47:49.803Z,2.30
2022-08-07T23:50:37.328Z,2.53
2022-08-07T23:53:17.284Z,3.00
2022-08-07T23:56:05.341Z,2.33
2022-08-07T23:58:58.779Z,1.97
